Time;durP1;ratioP1;P1;durP2;ratioP2;P2;SDS_P1;SDS_P2;PMS_P1;PMS_P2;Temp;Humidity;BMP_temperature;BMP_pressure;BME280_temperature;BME280_humidity;BME280_pressure;Samples;Min_cycle;Max_cycle;Signal;HPM_P1;HPM_P2
2022/01/28 00:01:18;;;;;;;19.33;3.47;;;14.60;66.40;;;;;;4160673;28;20128;-60
2022/01/28 00:03:40;;;;;;;19.05;3.25;;;14.60;67.80;;;;;;4167695;28;20053;-61
2022/01/28 00:06:03;;;;;;;13.45;2.83;;;14.60;67.50;;;;;;4176216;28;20512;-61
2022/01/28 00:08:25;;;;;;;21.67;3.28;;;14.60;70.60;;;;;;4176726;28;20048;-60
2022/01/28 00:10:47;;;;;;;15.05;2.97;;;14.60;71.70;;;;;;4176754;28;20049;-61
2022/01/28 00:13:20;;;;;;;11.02;2.38;;;14.70;72.70;;;;;;4176977;28;20102;-61
2022/01/28 00:15:50;;;;;;;7.13;2.13;;;14.80;72.30;;;;;;4181952;28;20135;-61
2022/01/28 00:37:14;;;;;;;13.75;2.45;;;15.20;69.60;;;;;;4174744;28;20495;-60
2022/01/28 00:39:36;;;;;;;14.18;2.97;;;15.20;68.60;;;;;;4188217;28;20045;-60
2022/01/28 00:41:58;;;;;;;13.25;2.75;;;15.10;68.80;;;;;;4181378;28;20163;-60
2022/01/28 00:44:20;;;;;;;10.80;2.30;;;15.10;68.40;;;;;;4192993;28;20045;-61
2022/01/28 00:46:42;;;;;;;10.88;3.35;;;15.10;69.10;;;;;;4192963;28;20520;-60
2022/01/28 00:49:04;;;;;;;12.90;2.70;;;15.00;69.50;;;;;;4193013;28;20111;-60
2022/01/28 00:51:28;;;;;;;15.93;3.00;;;15.00;69.60;;;;;;4191210;28;20072;-61
2022/01/28 00:53:50;;;;;;;22.50;3.65;;;15.00;70.10;;;;;;4179532;28;20503;-61
2022/01/28 00:56:12;;;;;;;24.02;3.63;;;15.00;70.50;;;;;;4192208;28;20080;-61
2022/01/28 00:58:35;;;;;;;15.10;3.20;;;15.00;70.60;;;;;;4192797;28;20052;-61
2022/01/28 01:00:57;;;;;;;13.93;2.45;;;15.00;70.10;;;;;;4192770;28;20044;-61
2022/01/28 01:03:19;;;;;;;12.82;2.70;;;15.10;66.90;;;;;;4178589;28;20070;-62
2022/01/28 01:05:41;;;;;;;16.13;2.75;;;15.10;68.30;;;;;;4192720;28;20063;-61
2022/01/28 01:08:06;;;;;;;16.92;2.92;;;15.00;69.60;;;;;;4192694;28;20451;-62
2022/01/28 01:10:28;;;;;;;9.98;2.00;;;15.00;68.20;;;;;;4183314;28;20052;-61
2022/01/28 01:12:50;;;;;;;11.50;2.85;;;15.00;67.10;;;;;;4163692;28;20055;-60
2022/01/28 01:15:18;;;;;;;14.52;2.45;;;15.00;68.60;;;;;;4176125;28;20053;-61
2022/01/28 01:17:45;;;;;;;11.68;2.63;;;14.90;69.60;;;;;;4175760;28;20550;-61
2022/01/28 01:20:35;;;;;;;16.02;3.00;;;15.00;70.20;;;;;;4181633;28;20079;-61
2022/01/28 01:23:07;;;;;;;13.35;2.88;;;15.00;70.00;;;;;;4192225;28;20055;-60
2022/01/28 01:25:30;;;;;;;9.57;2.53;;;15.10;69.90;;;;;;4192164;28;20064;-61
2022/01/28 01:27:55;;;;;;;12.13;2.58;;;15.10;69.80;;;;;;4191940;28;20063;-62
2022/01/28 01:30:18;;;;;;;13.68;2.85;;;15.20;69.50;;;;;;4159392;28;20045;-60
2022/01/28 01:32:40;;;;;;;14.05;3.45;;;15.30;69.10;;;;;;4175475;28;20127;-61
2022/01/28 01:35:02;;;;;;;13.38;3.22;;;15.30;68.80;;;;;;4174930;28;20673;-60
2022/01/28 01:37:24;;;;;;;13.65;3.67;;;15.30;68.50;;;;;;4178270;28;20057;-61
2022/01/28 01:39:46;;;;;;;16.65;3.10;;;15.40;69.40;;;;;;4191586;28;20075;-61
2022/01/28 01:42:20;;;;;;;17.15;3.83;;;15.40;68.50;;;;;;4182727;28;20049;-60
2022/01/28 01:45:37;;;;;;;13.23;3.30;;;15.40;68.60;;;;;;4179031;28;20037;-60
2022/01/28 01:52:53;;;;;;;18.05;3.80;;;15.60;68.60;;;;;;4190815;28;20202;-60
2022/01/28 01:55:15;;;;;;;26.35;4.32;;;15.70;68.20;;;;;;4179208;28;20051;-60
2022/01/28 01:57:39;;;;;;;24.65;4.13;;;15.70;67.90;;;;;;4191443;28;20110;-60
2022/01/28 02:00:02;;;;;;;16.52;3.13;;;15.80;67.60;;;;;;4195669;28;20373;-60
2022/01/28 02:02:23;;;;;;;26.17;4.47;;;15.70;67.50;;;;;;4179185;28;20057;-61
2022/01/28 02:04:45;;;;;;;17.30;3.88;;;15.80;67.60;;;;;;4184764;28;20380;-60
2022/01/28 02:07:09;;;;;;;18.15;3.83;;;15.70;67.40;;;;;;4195193;28;20128;-61
2022/01/28 02:09:31;;;;;;;14.05;3.70;;;15.70;67.60;;;;;;4195238;28;20455;-61
2022/01/28 02:11:54;;;;;;;20.17;3.38;;;15.70;67.80;;;;;;4182587;28;20052;-60
2022/01/28 02:14:17;;;;;;;21.08;4.00;;;15.60;67.80;;;;;;4180119;28;20037;-61
2022/01/28 02:16:39;;;;;;;14.73;4.03;;;15.60;67.70;;;;;;4195347;28;20094;-61
2022/01/28 02:19:01;;;;;;;20.67;4.15;;;15.50;67.40;;;;;;4194963;28;20113;-61
2022/01/28 02:21:24;;;;;;;18.55;4.00;;;15.50;67.40;;;;;;4184287;28;20095;-60
2022/01/28 02:23:51;;;;;;;19.70;3.85;;;15.50;68.10;;;;;;4176867;28;20045;-60
2022/01/28 02:26:15;;;;;;;18.58;3.58;;;15.50;68.40;;;;;;4161956;28;20487;-61
2022/01/28 02:28:38;;;;;;;24.33;4.22;;;15.50;68.30;;;;;;4162140;28;20103;-60
2022/01/28 02:31:01;;;;;;;11.75;3.10;;;15.50;68.40;;;;;;4169276;28;20138;-60
2022/01/28 02:33:25;;;;;;;15.07;3.20;;;15.50;67.80;;;;;;4177948;28;20412;-61
2022/01/28 02:35:48;;;;;;;13.05;3.53;;;15.50;68.60;;;;;;4194384;28;20139;-61
2022/01/28 02:38:13;;;;;;;17.88;3.05;;;15.50;68.40;;;;;;4194436;28;20377;-61
2022/01/28 02:40:36;;;;;;;17.90;3.20;;;15.40;68.40;;;;;;4193092;28;20052;-60
2022/01/28 02:43:02;;;;;;;16.08;3.42;;;15.40;68.60;;;;;;4183951;28;20045;-60
2022/01/28 02:45:32;;;;;;;15.48;2.97;;;15.50;68.70;;;;;;4192598;28;20056;-60
2022/01/28 02:48:01;;;;;;;18.15;3.33;;;15.50;68.60;;;;;;4193784;28;20048;-61
2022/01/28 02:50:26;;;;;;;14.82;3.42;;;15.60;67.80;;;;;;4188391;28;20053;-60
2022/01/28 02:53:01;;;;;;;9.48;3.17;;;15.60;67.70;;;;;;4177332;28;20182;-60
2022/01/28 02:55:25;;;;;;;16.38;3.72;;;15.60;66.90;;;;;;4177811;28;20392;-61
2022/01/28 02:58:02;;;;;;;15.10;3.47;;;15.70;67.30;;;;;;4178875;28;20732;-61
2022/01/28 03:00:24;;;;;;;16.38;3.40;;;15.70;65.50;;;;;;4176194;28;20467;-60
2022/01/28 03:02:46;;;;;;;17.77;3.92;;;15.60;66.60;;;;;;4187211;28;20190;-60
2022/01/28 03:05:30;;;;;;;21.73;4.05;;;15.60;67.00;;;;;;4177480;28;20122;-60
2022/01/28 03:07:52;;;;;;;13.55;3.65;;;15.60;67.20;;;;;;4177341;28;20036;-60
2022/01/28 03:10:28;;;;;;;16.20;4.07;;;15.50;66.70;;;;;;4183332;28;20575;-60
2022/01/28 03:13:17;;;;;;;15.90;2.85;;;15.60;66.20;;;;;;4193475;28;20479;-60
2022/01/28 03:15:41;;;;;;;18.52;3.80;;;15.60;65.20;;;;;;4159721;28;20047;-61
2022/01/28 03:18:11;;;;;;;13.65;2.92;;;15.60;66.20;;;;;;4161224;28;20155;-61
2022/01/28 03:20:39;;;;;;;12.70;3.53;;;15.60;65.50;;;;;;4175952;28;20442;-61
2022/01/28 03:23:01;;;;;;;11.98;2.63;;;15.60;67.00;;;;;;4192704;28;23643;-61
2022/01/28 03:25:23;;;;;;;17.42;3.50;;;15.60;66.20;;;;;;4175815;28;20053;-61
2022/01/28 03:27:51;;;;;;;14.65;3.47;;;15.70;65.20;;;;;;4175341;28;20055;-61
2022/01/28 03:30:14;;;;;;;15.15;3.15;;;15.70;65.00;;;;;;4185114;28;20045;-61
2022/01/28 03:32:36;;;;;;;13.23;2.63;;;15.80;65.40;;;;;;4187629;28;20041;-61
2022/01/28 03:35:19;;;;;;;16.33;3.58;;;15.80;65.00;;;;;;4193058;28;20159;-61
2022/01/28 03:37:41;;;;;;;18.15;3.33;;;15.90;65.20;;;;;;4193726;28;20198;-60
2022/01/28 03:40:06;;;;;;;12.95;2.95;;;15.90;65.20;;;;;;4186563;28;20413;-61
2022/01/28 03:42:28;;;;;;;18.90;3.90;;;15.90;65.20;;;;;;4177077;28;20485;-62
2022/01/28 03:44:50;;;;;;;12.90;3.97;;;15.90;65.40;;;;;;4188161;28;20041;-61
2022/01/28 03:47:14;;;;;;;14.90;3.40;;;15.80;65.40;;;;;;4193630;28;20485;-61
2022/01/28 03:49:36;;;;;;;18.08;3.38;;;15.80;65.40;;;;;;4188331;28;20139;-61
2022/01/28 03:51:58;;;;;;;13.13;3.33;;;15.80;65.70;;;;;;4177153;28;20052;-61
2022/01/28 03:54:20;;;;;;;11.45;2.90;;;15.80;65.60;;;;;;4184247;28;20114;-61
2022/01/28 03:56:42;;;;;;;15.38;3.75;;;15.70;65.80;;;;;;4193774;28;20051;-61
2022/01/28 03:59:04;;;;;;;15.88;3.13;;;15.70;67.00;;;;;;4192894;28;20492;-60
2022/01/28 04:01:31;;;;;;;13.82;3.30;;;15.70;66.50;;;;;;4176520;28;20126;-62
2022/01/28 04:11:57;;;;;;;12.93;2.83;;;15.80;65.90;;;;;;4192067;28;20060;-61
2022/01/28 04:14:33;;;;;;;15.95;3.17;;;15.70;65.50;;;;;;4193421;28;20045;-61
2022/01/28 04:19:37;;;;;;;18.33;3.85;;;15.80;65.30;;;;;;4192411;28;20480;-61
2022/01/28 04:21:59;;;;;;;18.73;3.08;;;15.90;64.50;;;;;;4177107;28;20079;-61
2022/01/28 04:24:21;;;;;;;13.70;3.35;;;16.00;64.20;;;;;;4177021;28;20045;-61
2022/01/28 04:26:43;;;;;;;16.70;2.90;;;16.10;63.60;;;;;;4176868;28;20091;-61
2022/01/28 04:29:06;;;;;;;15.38;3.25;;;16.10;63.80;;;;;;4185386;28;20060;-61
2022/01/28 04:31:28;;;;;;;15.85;3.05;;;16.10;63.50;;;;;;4185782;28;20063;-60
2022/01/28 04:33:52;;;;;;;11.65;2.97;;;16.10;62.70;;;;;;4176176;28;20053;-61
2022/01/28 04:36:17;;;;;;;13.55;4.07;;;16.00;63.70;;;;;;4174702;28;20068;-60
2022/01/28 04:38:46;;;;;;;13.75;3.22;;;16.00;64.20;;;;;;4180600;28;20044;-60
2022/01/28 04:41:15;;;;;;;11.30;3.67;;;15.90;64.20;;;;;;4192494;28;20472;-61
2022/01/28 04:43:43;;;;;;;14.10;3.33;;;15.80;64.40;;;;;;4184162;28;20106;-60
2022/01/28 04:46:11;;;;;;;18.73;3.28;;;15.80;65.70;;;;;;4176054;28;20049;-61
2022/01/28 04:48:39;;;;;;;20.02;4.03;;;15.80;65.50;;;;;;4192425;28;20500;-61
2022/01/28 04:51:13;;;;;;;22.98;4.47;;;15.80;64.90;;;;;;4193231;28;20051;-61
2022/01/28 04:53:48;;;;;;;19.08;2.95;;;15.80;64.60;;;;;;4192349;28;20051;-61
2022/01/28 04:56:25;;;;;;;21.42;3.75;;;15.70;64.40;;;;;;4191284;28;20133;-60
2022/01/28 04:58:59;;;;;;;21.55;4.47;;;15.70;65.20;;;;;;4192635;28;20067;-60
2022/01/28 05:04:21;;;;;;;16.45;3.60;;;15.70;65.70;;;;;;4170858;28;20045;-61
2022/01/28 05:09:50;;;;;;;17.45;3.03;;;16.00;64.00;;;;;;4163182;28;20056;-61
2022/01/28 05:26:02;;;;;;;17.45;4.07;;;16.20;62.60;;;;;;4168044;28;20099;-61
2022/01/28 05:28:26;;;;;;;17.85;3.17;;;16.20;62.90;;;;;;4175901;28;20513;-61
2022/01/28 05:30:49;;;;;;;14.30;2.75;;;16.10;62.30;;;;;;4175526;28;20056;-61
2022/01/28 05:33:11;;;;;;;12.55;3.28;;;16.00;63.10;;;;;;4175775;28;20444;-61
2022/01/28 05:35:33;;;;;;;13.65;3.92;;;16.00;62.80;;;;;;4180152;28;20033;-61
2022/01/28 05:37:55;;;;;;;19.55;3.17;;;16.00;62.50;;;;;;4192085;28;20055;-61
2022/01/28 05:40:17;;;;;;;13.43;3.70;;;16.00;63.20;;;;;;4192008;28;20443;-61
2022/01/28 05:42:41;;;;;;;15.57;3.22;;;16.00;63.30;;;;;;4178729;28;20497;-62
2022/01/28 05:45:04;;;;;;;16.73;3.80;;;16.00;63.50;;;;;;4175953;28;20056;-62
2022/01/28 05:47:27;;;;;;;21.42;3.70;;;16.00;63.50;;;;;;4179645;28;20049;-61
2022/01/28 05:49:50;;;;;;;17.05;3.78;;;16.00;63.40;;;;;;4191563;28;20059;-61
2022/01/28 05:52:12;;;;;;;16.70;3.67;;;16.00;63.40;;;;;;4192362;28;20384;-61
2022/01/28 05:54:34;;;;;;;12.15;3.20;;;16.00;63.50;;;;;;4192105;28;20515;-61
2022/01/28 05:56:56;;;;;;;19.95;4.13;;;16.00;64.30;;;;;;4173001;28;20076;-61
2022/01/28 05:59:20;;;;;;;14.48;3.30;;;16.00;63.60;;;;;;4177591;28;20055;-60
2022/01/28 06:01:42;;;;;;;19.63;4.25;;;16.00;63.50;;;;;;4191990;28;20540;-61
2022/01/28 06:04:04;;;;;;;14.13;3.50;;;15.90;63.70;;;;;;4159385;28;20396;-61
2022/01/28 06:06:26;;;;;;;16.40;3.85;;;15.90;63.90;;;;;;4159441;28;20119;-61
2022/01/28 06:08:49;;;;;;;13.52;3.63;;;15.80;64.10;;;;;;4188821;28;20052;-61
2022/01/28 06:11:11;;;;;;;14.50;3.47;;;15.90;63.40;;;;;;4192313;28;20063;-61
2022/01/28 06:13:34;;;;;;;12.98;3.47;;;15.90;63.90;;;;;;4176881;28;20114;-61
2022/01/28 06:15:57;;;;;;;15.75;3.83;;;15.90;63.60;;;;;;4175739;28;20076;-61
2022/01/28 06:18:19;;;;;;;15.95;4.22;;;16.00;62.50;;;;;;4186003;28;20473;-61
2022/01/28 06:20:43;;;;;;;16.13;4.40;;;16.00;61.10;;;;;;4191859;28;21038;-61
2022/01/28 06:23:06;;;;;;;20.83;4.95;;;16.10;60.60;;;;;;4178244;28;20066;-61
2022/01/28 06:25:28;;;;;;;21.05;5.93;;;16.10;61.60;;;;;;4178280;28;20148;-61
2022/01/28 06:27:50;;;;;;;17.40;3.78;;;16.00;60.00;;;;;;4184646;28;20052;-61
2022/01/28 06:30:13;;;;;;;24.15;8.60;;;16.00;59.60;;;;;;4194791;28;20080;-61
2022/01/28 06:32:36;;;;;;;21.83;7.88;;;15.90;61.50;;;;;;4185537;28;20053;-60
2022/01/28 06:35:00;;;;;;;26.33;7.60;;;15.90;60.90;;;;;;4178253;28;20048;-61
2022/01/28 06:37:22;;;;;;;26.85;7.18;;;16.00;62.10;;;;;;4185581;28;20071;-61
2022/01/28 06:39:44;;;;;;;18.23;4.68;;;16.00;62.00;;;;;;4194852;28;20044;-61
2022/01/28 06:42:08;;;;;;;25.20;6.50;;;16.00;61.10;;;;;;4186531;28;20052;-61
2022/01/28 06:44:31;;;;;;;22.20;6.35;;;16.00;61.60;;;;;;4190374;28;20125;-61
2022/01/28 06:46:53;;;;;;;22.15;5.97;;;16.00;60.90;;;;;;4194652;28;20151;-60
2022/01/28 06:49:17;;;;;;;18.17;5.35;;;16.00;62.00;;;;;;4194563;28;20048;-61
2022/01/28 06:51:38;;;;;;;19.73;4.55;;;16.00;62.10;;;;;;4177810;28;20072;-61
2022/01/28 06:54:01;;;;;;;20.20;6.97;;;16.10;61.70;;;;;;4185459;28;20044;-61
2022/01/28 06:56:23;;;;;;;11.30;3.75;;;16.10;62.10;;;;;;4194310;28;20056;-61
2022/01/28 06:58:44;;;;;;;19.05;5.75;;;16.20;61.90;;;;;;4194563;28;20503;-61
2022/01/28 07:01:07;;;;;;;35.33;15.60;;;16.20;61.90;;;;;;4185413;28;20049;-60
2022/01/28 07:03:29;;;;;;;29.17;11.48;;;16.20;61.20;;;;;;4194585;28;20484;-61
2022/01/28 07:05:52;;;;;;;21.05;9.63;;;16.20;62.30;;;;;;4194030;28;20077;-60
2022/01/28 07:08:15;;;;;;;14.15;5.15;;;16.10;62.70;;;;;;4194442;28;20549;-61
2022/01/28 07:10:37;;;;;;;19.13;4.95;;;16.10;63.00;;;;;;4194639;28;20122;-61
2022/01/28 07:13:00;;;;;;;19.08;5.20;;;16.00;63.10;;;;;;4191014;28;20052;-63
2022/01/28 07:15:24;;;;;;;23.67;8.95;;;15.90;63.50;;;;;;4194422;28;20075;-63
2022/01/28 07:17:46;;;;;;;18.20;6.07;;;15.90;64.20;;;;;;4187032;28;20052;-63
2022/01/28 07:20:09;;;;;;;15.73;7.15;;;15.80;64.30;;;;;;4181738;28;20041;-63
2022/01/28 07:22:32;;;;;;;21.88;6.05;;;15.90;64.70;;;;;;4175900;28;20128;-63
2022/01/28 07:24:55;;;;;;;31.90;12.68;;;15.80;64.60;;;;;;4174405;28;20071;-63
2022/01/28 07:27:19;;;;;;;18.48;6.13;;;15.80;64.70;;;;;;4174393;28;20086;-63
2022/01/28 07:29:41;;;;;;;21.17;5.57;;;15.80;64.70;;;;;;4175212;28;20041;-63
2022/01/28 07:32:04;;;;;;;14.23;3.60;;;15.80;65.00;;;;;;4174845;28;20108;-63
2022/01/28 07:34:26;;;;;;;22.25;4.53;;;15.70;65.10;;;;;;4174916;28;20057;-63
2022/01/28 07:36:49;;;;;;;15.32;3.63;;;15.70;65.50;;;;;;4174138;28;20611;-64
2022/01/28 07:39:12;;;;;;;25.98;10.63;;;15.70;65.70;;;;;;4175043;28;20045;-63
2022/01/28 07:41:35;;;;;;;22.40;6.45;;;15.70;65.90;;;;;;4175079;28;20052;-62
2022/01/28 07:44:02;;;;;;;17.85;4.25;;;15.80;65.80;;;;;;4187765;28;20471;-63
2022/01/28 07:46:25;;;;;;;22.48;6.78;;;15.80;65.60;;;;;;4173142;28;20481;-61
2022/01/28 07:48:47;;;;;;;16.77;5.72;;;15.80;65.40;;;;;;4175010;28;20071;-63
2022/01/28 07:51:09;;;;;;;15.30;3.38;;;15.80;65.30;;;;;;4174638;28;20932;-62
2022/01/28 07:53:32;;;;;;;16.50;3.42;;;15.80;65.30;;;;;;4172898;28;20049;-63
2022/01/28 07:55:55;;;;;;;11.40;2.95;;;15.80;65.40;;;;;;4174338;28;20075;-62
2022/01/28 07:58:17;;;;;;;20.40;4.93;;;15.80;65.60;;;;;;4174444;28;20160;-62
2022/01/28 08:00:40;;;;;;;21.52;7.40;;;15.70;65.70;;;;;;4174781;28;20080;-63
2022/01/28 08:03:02;;;;;;;19.80;7.80;;;15.70;65.90;;;;;;4174929;28;20045;-62
2022/01/28 08:05:24;;;;;;;21.85;6.25;;;15.70;65.90;;;;;;4175089;28;20485;-62
2022/01/28 08:07:47;;;;;;;17.63;4.65;;;15.70;65.50;;;;;;4174603;28;20194;-62
2022/01/28 08:10:09;;;;;;;20.58;3.70;;;15.70;66.00;;;;;;4174637;28;20128;-62
2022/01/28 08:12:33;;;;;;;19.60;4.00;;;15.70;66.20;;;;;;4174410;28;20045;-62
2022/01/28 08:14:55;;;;;;;24.45;6.40;;;15.70;66.40;;;;;;4174162;28;20085;-63
2022/01/28 08:17:17;;;;;;;23.50;6.38;;;15.70;66.20;;;;;;4174147;28;20059;-63
2022/01/28 08:19:39;;;;;;;33.25;5.05;;;15.70;66.10;;;;;;4174724;28;20044;-63
2022/01/28 08:22:01;;;;;;;18.90;3.72;;;15.70;65.90;;;;;;4174193;28;20416;-63
2022/01/28 08:24:24;;;;;;;19.00;4.15;;;15.70;65.90;;;;;;4174578;28;20073;-63
2022/01/28 08:26:46;;;;;;;13.98;3.33;;;15.70;65.90;;;;;;4174036;28;20045;-63
2022/01/28 08:29:09;;;;;;;13.77;4.18;;;15.70;66.20;;;;;;4172739;28;20049;-63
2022/01/28 08:31:32;;;;;;;14.82;3.53;;;15.70;66.20;;;;;;4174047;28;20055;-63
2022/01/28 08:33:56;;;;;;;16.83;3.97;;;15.80;66.30;;;;;;4173895;28;20378;-63
2022/01/28 08:36:19;;;;;;;28.10;3.97;;;15.80;66.20;;;;;;4174371;28;20130;-63
2022/01/28 08:38:46;;;;;;;25.45;3.35;;;15.80;66.00;;;;;;4173611;28;20060;-63
2022/01/28 08:41:09;;;;;;;15.85;3.85;;;15.90;65.80;;;;;;4173589;28;20111;-63
2022/01/28 08:43:32;;;;;;;19.30;5.22;;;15.90;65.60;;;;;;4174256;28;21016;-63
2022/01/28 08:45:56;;;;;;;17.20;3.47;;;15.90;65.60;;;;;;4173479;28;20048;-63
2022/01/28 08:48:18;;;;;;;17.85;4.75;;;15.90;65.50;;;;;;4174093;28;20041;-63
2022/01/28 08:50:40;;;;;;;21.73;3.75;;;15.90;65.50;;;;;;4173744;28;20205;-63
2022/01/28 08:53:03;;;;;;;25.35;4.13;;;15.90;65.80;;;;;;4173871;28;20114;-63
2022/01/28 08:55:25;;;;;;;22.30;5.82;;;15.80;66.00;;;;;;4174371;28;20126;-63
2022/01/28 08:57:47;;;;;;;17.63;3.75;;;15.80;66.20;;;;;;4173341;28;20041;-63
2022/01/28 09:00:11;;;;;;;13.93;3.35;;;15.70;66.10;;;;;;4173605;28;20451;-62
2022/01/28 09:02:35;;;;;;;21.60;5.75;;;15.70;66.20;;;;;;4173333;28;20040;-63
2022/01/28 09:04:57;;;;;;;22.70;4.80;;;15.70;66.40;;;;;;4174188;28;20075;-63
2022/01/28 09:07:19;;;;;;;20.67;3.60;;;15.60;66.50;;;;;;4173909;28;20049;-63
2022/01/28 09:09:48;;;;;;;22.70;4.88;;;15.60;66.60;;;;;;4173656;28;20055;-63
2022/01/28 09:12:27;;;;;;;19.58;4.70;;;15.60;66.70;;;;;;4173763;28;20049;-63
2022/01/28 09:14:49;;;;;;;20.90;5.88;;;15.50;66.80;;;;;;4173830;28;20063;-62
2022/01/28 09:17:12;;;;;;;16.52;3.47;;;15.50;67.20;;;;;;4173733;28;20044;-63
2022/01/28 09:19:35;;;;;;;23.48;4.70;;;15.50;67.40;;;;;;4173630;28;20071;-63
2022/01/28 09:21:57;;;;;;;22.98;4.75;;;15.60;67.20;;;;;;4172919;28;20386;-63
2022/01/28 09:24:19;;;;;;;24.30;4.82;;;15.70;67.00;;;;;;4173852;28;20444;-63
2022/01/28 09:26:42;;;;;;;20.00;3.88;;;15.70;66.70;;;;;;4173796;28;20123;-64
2022/01/28 09:29:04;;;;;;;19.08;4.88;;;15.70;66.60;;;;;;4173542;28;20053;-63
2022/01/28 09:31:28;;;;;;;19.08;4.63;;;15.80;66.60;;;;;;4173930;28;20112;-63
2022/01/28 09:33:50;;;;;;;18.63;3.65;;;15.80;66.50;;;;;;4173317;28;20053;-63
2022/01/28 09:36:14;;;;;;;13.52;3.30;;;15.70;66.50;;;;;;4173276;28;20118;-63
2022/01/28 09:38:36;;;;;;;14.90;3.33;;;15.70;66.80;;;;;;4173272;28;20045;-63
2022/01/28 09:41:01;;;;;;;14.80;4.15;;;15.70;66.90;;;;;;4161378;28;20053;-63
2022/01/28 09:43:26;;;;;;;17.75;3.97;;;15.70;66.80;;;;;;4172984;28;20083;-64
2022/01/28 09:45:49;;;;;;;14.35;2.90;;;15.60;66.80;;;;;;4173488;28;20041;-63
2022/01/28 09:48:12;;;;;;;16.92;3.15;;;15.60;67.10;;;;;;4173254;28;20049;-63
2022/01/28 09:50:34;;;;;;;16.98;3.20;;;15.60;67.40;;;;;;4173498;28;20080;-63
2022/01/28 09:52:58;;;;;;;15.25;3.08;;;15.50;67.40;;;;;;4173159;28;20056;-63
2022/01/28 09:55:21;;;;;;;19.58;3.92;;;15.50;67.50;;;;;;4173476;28;20056;-63
2022/01/28 09:57:43;;;;;;;18.50;3.25;;;15.40;67.60;;;;;;4173248;28;20056;-63
2022/01/28 10:00:08;;;;;;;13.93;2.55;;;15.40;67.60;;;;;;4176194;28;20519;-63
2022/01/28 10:02:54;;;;;;;21.27;3.65;;;15.40;68.10;;;;;;4176752;28;20067;-64
2022/01/28 10:05:24;;;;;;;17.55;3.35;;;15.40;68.10;;;;;;4175966;28;20123;-63
2022/01/28 10:08:08;;;;;;;23.02;3.42;;;15.30;68.40;;;;;;4176138;28;20040;-65
2022/01/28 10:10:45;;;;;;;15.93;2.97;;;15.30;68.10;;;;;;4175737;28;20056;-63
2022/01/28 10:13:14;;;;;;;16.40;3.47;;;15.20;68.30;;;;;;4176347;28;20456;-63
2022/01/28 10:15:36;;;;;;;13.75;3.20;;;15.20;68.30;;;;;;4175843;28;20064;-63
2022/01/28 10:17:59;;;;;;;13.18;3.65;;;15.10;68.50;;;;;;4176213;28;20045;-64
2022/01/28 10:20:21;;;;;;;17.27;3.63;;;15.10;68.70;;;;;;4176395;28;20435;-63
2022/01/28 10:22:50;;;;;;;13.93;2.75;;;15.10;68.80;;;;;;4176104;28;20040;-63
2022/01/28 10:25:24;;;;;;;13.63;3.58;;;15.10;68.60;;;;;;4176435;28;20049;-64
2022/01/28 10:27:57;;;;;;;11.85;2.92;;;15.00;68.70;;;;;;4176201;28;20060;-64
2022/01/28 10:30:21;;;;;;;14.25;3.63;;;15.00;68.60;;;;;;4176142;28;20155;-64
2022/01/28 10:32:43;;;;;;;12.45;3.40;;;15.00;68.90;;;;;;4175828;28;20562;-63
2022/01/28 10:35:05;;;;;;;16.38;3.33;;;14.90;68.40;;;;;;4176441;28;20405;-64
2022/01/28 10:37:32;;;;;;;14.52;3.42;;;14.90;68.60;;;;;;4174585;28;20055;-65
2022/01/28 10:39:57;;;;;;;21.60;5.60;;;14.90;69.20;;;;;;4175357;28;20073;-64
2022/01/28 10:42:33;;;;;;;44.60;14.85;;;14.90;69.30;;;;;;4175880;28;20057;-64
2022/01/28 10:44:57;;;;;;;20.67;4.90;;;14.90;69.50;;;;;;4175916;28;20060;-65
2022/01/28 10:47:36;;;;;;;18.75;3.97;;;14.90;69.90;;;;;;4175940;28;20052;-68
2022/01/28 10:49:59;;;;;;;21.73;3.78;;;15.00;70.60;;;;;;4176263;28;20465;-66
2022/01/28 10:52:31;;;;;;;20.67;6.72;;;15.10;70.20;;;;;;4175364;28;20749;-68
2022/01/28 10:54:57;;;;;;;14.15;3.15;;;15.10;70.00;;;;;;4174950;28;20275;-67
2022/01/28 10:57:21;;;;;;;17.55;3.45;;;15.20;69.90;;;;;;4175035;28;20141;-66
2022/01/28 10:59:43;;;;;;;13.73;3.42;;;15.20;68.40;;;;;;4175584;28;20432;-65
2022/01/28 11:02:06;;;;;;;17.08;3.45;;;15.30;68.00;;;;;;4174912;28;20504;-65
2022/01/28 11:04:29;;;;;;;13.65;3.67;;;15.30;69.00;;;;;;4175385;28;20473;-65
2022/01/28 11:06:55;;;;;;;20.13;4.30;;;15.30;69.10;;;;;;4175356;28;20056;-66
2022/01/28 11:09:20;;;;;;;23.88;3.78;;;15.30;68.60;;;;;;4174773;28;20053;-66
2022/01/28 11:11:42;;;;;;;20.08;4.10;;;15.30;68.30;;;;;;4174857;28;20501;-66
2022/01/28 11:14:07;;;;;;;21.05;3.95;;;15.20;68.80;;;;;;4174768;28;20079;-65
2022/01/28 11:16:29;;;;;;;23.63;3.72;;;15.20;68.80;;;;;;4175731;28;20053;-65
2022/01/28 11:18:52;;;;;;;17.30;4.15;;;15.20;69.00;;;;;;4175050;28;20123;-68
2022/01/28 11:21:17;;;;;;;14.23;3.80;;;15.10;69.00;;;;;;4175025;28;20072;-66
2022/01/28 11:23:50;;;;;;;18.02;3.67;;;15.10;69.00;;;;;;4175155;28;20044;-65
2022/01/28 11:26:17;;;;;;;18.85;4.28;;;15.10;68.50;;;;;;4174555;28;20045;-68
2022/01/28 11:28:42;;;;;;;20.60;3.63;;;15.00;69.00;;;;;;4174570;28;20500;-67
2022/01/28 11:31:06;;;;;;;23.20;4.05;;;15.00;69.20;;;;;;4174150;28;20045;-66
2022/01/28 11:33:43;;;;;;;14.95;3.47;;;15.00;69.20;;;;;;4172953;28;20597;-65
2022/01/28 11:36:06;;;;;;;25.05;3.97;;;15.00;68.80;;;;;;4174936;28;20139;-65
2022/01/28 11:38:48;;;;;;;14.60;3.35;;;15.00;69.10;;;;;;4174967;28;20045;-65
2022/01/28 11:41:14;;;;;;;24.05;3.65;;;15.00;68.30;;;;;;4175134;28;20086;-67
2022/01/28 11:43:52;;;;;;;23.95;3.50;;;14.90;69.10;;;;;;4175430;28;20518;-65
2022/01/28 11:46:26;;;;;;;17.17;3.58;;;14.90;69.30;;;;;;4174334;28;20095;-65
2022/01/28 11:49:15;;;;;;;28.33;3.83;;;14.90;69.30;;;;;;4174290;28;20045;-65
2022/01/28 11:51:40;;;;;;;21.13;3.92;;;14.90;70.40;;;;;;4174412;28;20060;-65
2022/01/28 11:54:04;;;;;;;19.77;3.15;;;14.90;70.20;;;;;;4175170;28;20045;-65
2022/01/28 11:56:26;;;;;;;15.40;4.25;;;14.90;70.40;;;;;;4174619;28;20131;-65
2022/01/28 11:58:53;;;;;;;18.38;3.63;;;15.00;71.10;;;;;;4173910;28;20534;-65
2022/01/28 12:01:15;;;;;;;26.25;4.15;;;15.10;71.50;;;;;;4175016;28;20055;-66
2022/01/28 12:03:39;;;;;;;24.42;3.95;;;15.10;71.20;;;;;;4175045;28;20049;-66
2022/01/28 12:06:08;;;;;;;15.98;3.60;;;15.20;70.80;;;;;;4174262;28;20068;-65
2022/01/28 12:08:32;;;;;;;22.45;3.10;;;15.30;70.40;;;;;;4174548;28;20061;-65
2022/01/28 12:10:54;;;;;;;15.98;4.20;;;15.30;70.20;;;;;;4174680;28;20056;-65
2022/01/28 12:13:18;;;;;;;14.95;3.22;;;15.30;70.00;;;;;;4174552;28;20060;-65
2022/01/28 12:16:03;;;;;;;15.85;3.00;;;15.40;69.70;;;;;;4174541;28;20048;-65
2022/01/28 12:18:25;;;;;;;12.40;3.40;;;15.40;69.40;;;;;;4173859;28;20128;-65
2022/01/28 12:20:49;;;;;;;12.30;3.45;;;15.40;69.70;;;;;;4170086;28;20461;-66
2022/01/28 12:23:38;;;;;;;20.08;4.07;;;15.40;69.40;;;;;;4173857;28;20807;-65
2022/01/28 12:26:01;;;;;;;22.85;3.40;;;15.40;69.40;;;;;;4174168;28;20048;-66
2022/01/28 12:28:24;;;;;;;16.65;3.83;;;15.40;69.90;;;;;;4174346;28;20045;-66
2022/01/28 12:30:48;;;;;;;21.45;3.45;;;15.30;71.20;;;;;;4174388;28;20045;-66
2022/01/28 12:33:10;;;;;;;16.58;3.53;;;15.30;70.70;;;;;;4174134;28;20661;-66
2022/01/28 12:35:33;;;;;;;18.35;3.85;;;15.30;70.60;;;;;;4174133;28;20099;-66
2022/01/28 12:38:00;;;;;;;16.55;2.60;;;15.30;70.60;;;;;;4174207;28;20045;-67
2022/01/28 12:40:29;;;;;;;18.80;4.10;;;15.30;70.20;;;;;;4173881;28;20052;-65
2022/01/28 12:42:53;;;;;;;11.40;2.78;;;15.30;70.60;;;;;;4173617;28;20056;-67
2022/01/28 12:45:14;;;;;;;17.85;3.40;;;15.30;70.50;;;;;;4173385;28;20049;-66
2022/01/28 12:47:37;;;;;;;18.95;3.42;;;15.30;70.40;;;;;;4173437;28;20107;-67
2022/01/28 12:50:03;;;;;;;24.13;3.42;;;15.40;70.00;;;;;;4169320;28;21031;-66
2022/01/28 12:52:25;;;;;;;16.40;3.03;;;15.50;69.60;;;;;;4191451;28;20341;-66
2022/01/28 12:54:49;;;;;;;22.27;4.15;;;15.50;69.50;;;;;;4173302;28;20541;-67
2022/01/28 12:57:14;;;;;;;19.98;3.25;;;15.50;69.30;;;;;;4173666;28;20052;-66
2022/01/28 12:59:37;;;;;;;14.80;3.65;;;15.50;69.20;;;;;;4161921;28;20063;-67
2022/01/28 13:01:59;;;;;;;20.10;3.53;;;15.50;69.10;;;;;;4172597;28;20068;-66
2022/01/28 13:04:25;;;;;;;7.05;2.17;;;15.50;68.90;;;;;;4172946;28;20045;-66
2022/01/28 13:08:24;;;;;;;15.38;2.92;;;15.40;68.50;;;;;;4172836;28;20397;-66
2022/01/28 13:09:44;;;;;;;16.83;3.63;;;15.40;68.30;;;;;;4168619;28;20091;-66
2022/01/28 13:12:09;;;;;;;15.80;3.50;;;15.40;68.60;;;;;;4170828;28;20048;-66
2022/01/28 13:14:33;;;;;;;16.00;3.45;;;15.40;68.80;;;;;;4172769;28;20053;-66
2022/01/28 13:16:57;;;;;;;13.38;3.33;;;15.30;68.70;;;;;;4172487;28;20045;-67
2022/01/28 13:19:19;;;;;;;17.42;3.45;;;15.30;68.00;;;;;;4172409;28;20582;-65